createdAt,value
2017-09-28T00:00:36.769Z,28.80
2017-09-28T00:03:05.082Z,28.80
2017-09-28T00:05:34.072Z,28.80
2017-09-28T00:08:03.060Z,28.70
2017-09-28T00:10:31.332Z,28.70
2017-09-28T00:12:59.540Z,28.70
2017-09-28T00:15:27.815Z,28.70
2017-09-28T00:17:56.052Z,28.80
2017-09-28T00:20:24.272Z,28.70
2017-09-28T00:22:52.503Z,28.70
2017-09-28T00:25:20.828Z,28.70
2017-09-28T00:27:49.128Z,28.70
2017-09-28T00:30:17.469Z,28.70
2017-09-28T00:32:45.729Z,28.70
2017-09-28T00:35:14.805Z,28.70
2017-09-28T00:37:43.007Z,28.70
2017-09-28T00:40:12.000Z,28.70
2017-09-28T00:42:40.214Z,28.70
2017-09-28T00:45:08.434Z,28.70
2017-09-28T00:47:36.673Z,28.70
2017-09-28T00:50:04.937Z,28.70
2017-09-28T00:52:33.137Z,28.70
2017-09-28T00:55:01.428Z,28.70
2017-09-28T00:57:29.651Z,28.70
2017-09-28T00:59:57.880Z,28.70
2017-09-28T01:02:26.089Z,28.70
2017-09-28T01:04:55.084Z,28.60
2017-09-28T01:07:23.364Z,28.70
2017-09-28T01:09:51.613Z,28.60
2017-09-28T01:12:19.849Z,28.70
2017-09-28T01:14:48.080Z,28.60
2017-09-28T01:17:17.086Z,28.60
2017-09-28T01:19:45.295Z,28.60
2017-09-28T01:22:13.519Z,28.60
2017-09-28T01:24:42.508Z,28.60
2017-09-28T01:27:11.547Z,28.50
2017-09-28T01:29:39.805Z,28.50
2017-09-28T01:32:08.769Z,28.50
2017-09-28T01:34:37.765Z,28.60
2017-09-28T01:37:06.767Z,28.50
2017-09-28T01:39:35.739Z,28.50
2017-09-28T01:42:04.029Z,28.50
2017-09-28T01:44:32.261Z,28.50
2017-09-28T01:47:00.504Z,28.50
2017-09-28T01:49:28.825Z,28.50
2017-09-28T01:51:57.057Z,28.50
2017-09-28T01:54:25.268Z,28.50
2017-09-28T01:56:53.531Z,28.40
2017-09-28T01:59:21.761Z,28.50
2017-09-28T02:01:50.801Z,28.40
2017-09-28T02:04:19.038Z,28.40
2017-09-28T02:06:48.066Z,28.40
2017-09-28T02:09:16.303Z,28.40
2017-09-28T02:11:45.368Z,28.40
2017-09-28T02:14:14.428Z,28.40
2017-09-28T02:16:42.686Z,28.40
2017-09-28T02:19:10.944Z,28.40
2017-09-28T02:21:39.916Z,28.40
2017-09-28T02:24:08.652Z,28.30
2017-09-28T02:26:36.941Z,28.40
2017-09-28T02:29:05.146Z,28.40
2017-09-28T02:31:33.377Z,28.40
2017-09-28T02:34:01.601Z,28.30
2017-09-28T02:36:29.820Z,28.30
2017-09-28T02:38:58.019Z,28.30
2017-09-28T02:41:26.229Z,28.30
2017-09-28T02:43:54.535Z,28.30
2017-09-28T02:46:23.512Z,28.30
2017-09-28T02:48:51.728Z,28.30
2017-09-28T02:51:19.933Z,28.30
2017-09-28T02:53:48.212Z,28.30
2017-09-28T02:56:16.453Z,28.30
2017-09-28T02:58:44.684Z,28.30
2017-09-28T03:01:13.610Z,28.30
2017-09-28T03:03:41.818Z,28.30
2017-09-28T03:06:10.062Z,28.30
2017-09-28T03:08:38.276Z,28.20
2017-09-28T03:11:06.533Z,28.20
2017-09-28T03:13:34.792Z,28.20
2017-09-28T03:16:03.028Z,28.20
2017-09-28T03:18:31.248Z,28.20
2017-09-28T03:20:59.469Z,28.20
2017-09-28T03:23:27.762Z,28.20
2017-09-28T03:25:55.984Z,28.20
2017-09-28T03:28:24.200Z,28.20
2017-09-28T03:30:52.415Z,28.20
2017-09-28T03:33:20.784Z,28.20
2017-09-28T03:35:49.765Z,28.20
2017-09-28T03:38:18.748Z,28.20
2017-09-28T03:40:47.072Z,28.20
2017-09-28T03:43:15.300Z,28.10
2017-09-28T03:45:43.525Z,28.20
2017-09-28T03:48:11.855Z,28.20
2017-09-28T03:50:40.165Z,28.20
2017-09-28T03:53:08.389Z,28.10
2017-09-28T03:55:36.624Z,28.10
2017-09-28T03:58:04.872Z,28.10
2017-09-28T04:00:33.874Z,28.10
2017-09-28T04:03:02.925Z,28.10
2017-09-28T04:05:31.151Z,28.10
2017-09-28T04:07:59.372Z,28.10
2017-09-28T04:10:27.592Z,28.10
2017-09-28T04:12:56.584Z,28.10
2017-09-28T04:15:25.612Z,28.00
2017-09-28T04:17:53.964Z,28.00
2017-09-28T04:20:22.182Z,28.10
2017-09-28T04:22:50.436Z,28.10
2017-09-28T04:25:18.685Z,28.10
2017-09-28T04:27:47.725Z,28.10
2017-09-28T04:30:16.016Z,28.10
2017-09-28T04:32:44.286Z,28.10
2017-09-28T04:35:12.501Z,28.10
2017-09-28T04:37:41.535Z,28.10
2017-09-28T04:40:09.732Z,28.10
2017-09-28T04:42:37.976Z,28.10
2017-09-28T04:45:07.077Z,28.10
2017-09-28T04:47:35.308Z,28.10
2017-09-28T04:50:03.558Z,28.10
2017-09-28T04:52:32.601Z,28.10
2017-09-28T04:55:01.585Z,28.10
2017-09-28T04:57:30.572Z,28.10
2017-09-28T04:59:59.571Z,28.10
2017-09-28T05:02:28.557Z,28.10
2017-09-28T05:04:57.532Z,28.10
2017-09-28T05:07:25.828Z,28.10
2017-09-28T05:09:54.801Z,28.10
2017-09-28T05:12:23.032Z,28.00
2017-09-28T05:14:51.276Z,28.00
2017-09-28T05:17:20.338Z,28.00
2017-09-28T05:19:48.538Z,28.00
2017-09-28T05:22:16.744Z,28.00
2017-09-28T05:24:44.965Z,28.00
2017-09-28T05:27:13.285Z,28.00
2017-09-28T05:29:42.385Z,28.00
2017-09-28T05:32:10.603Z,28.00
2017-09-28T05:34:38.820Z,28.00
2017-09-28T05:37:07.801Z,28.00
2017-09-28T05:39:36.144Z,28.00
2017-09-28T05:42:04.388Z,28.00
2017-09-28T05:44:32.605Z,28.00
2017-09-28T05:47:00.812Z,28.00
2017-09-28T05:49:29.813Z,28.00
2017-09-28T05:51:58.896Z,28.00
2017-09-28T05:54:27.162Z,27.90
2017-09-28T05:56:55.377Z,28.00
2017-09-28T05:59:24.208Z,28.00
2017-09-28T06:01:52.416Z,28.00
2017-09-28T06:04:21.404Z,28.00
2017-09-28T06:06:49.637Z,28.00
2017-09-28T06:09:17.857Z,28.00
2017-09-28T06:11:46.103Z,28.00
2017-09-28T06:14:14.328Z,28.00
2017-09-28T06:16:43.303Z,28.10
2017-09-28T06:19:11.552Z,28.00
2017-09-28T06:21:44.822Z,28.10
2017-09-28T06:24:13.029Z,28.10
2017-09-28T06:26:41.317Z,28.10
2017-09-28T06:29:09.536Z,28.00
2017-09-28T06:31:37.833Z,28.10
2017-09-28T06:34:06.077Z,28.10
2017-09-28T06:36:34.284Z,28.10
2017-09-28T06:39:02.523Z,28.20
2017-09-28T06:41:31.527Z,28.20
2017-09-28T06:43:59.756Z,28.20
2017-09-28T06:46:28.049Z,28.20
2017-09-28T06:48:56.283Z,28.30
2017-09-28T06:51:24.568Z,28.30
2017-09-28T06:53:52.778Z,28.30
2017-09-28T06:56:21.012Z,28.40
2017-09-28T06:58:49.261Z,28.40
2017-09-28T07:01:17.518Z,28.40
2017-09-28T07:03:46.552Z,28.50
2017-09-28T07:06:14.949Z,28.50
2017-09-28T07:08:43.216Z,28.50
2017-09-28T07:11:11.484Z,28.60
2017-09-28T07:13:39.701Z,28.60
2017-09-28T07:16:07.996Z,28.60
2017-09-28T07:18:37.052Z,28.70
2017-09-28T07:21:05.480Z,28.60
2017-09-28T07:23:33.788Z,28.70
2017-09-28T07:26:02.280Z,28.70
2017-09-28T07:28:30.521Z,28.80
2017-09-28T07:30:58.800Z,28.80
2017-09-28T07:33:27.033Z,28.80
2017-09-28T07:35:55.260Z,28.80
2017-09-28T07:38:23.530Z,28.90
2017-09-28T07:40:52.656Z,28.80
2017-09-28T07:43:20.889Z,28.80
2017-09-28T07:45:49.136Z,28.80
2017-09-28T07:48:17.377Z,28.80
2017-09-28T07:50:45.629Z,28.80
2017-09-28T07:53:14.692Z,28.80
2017-09-28T07:55:43.014Z,28.70
2017-09-28T07:58:11.231Z,28.80
2017-09-28T08:00:39.568Z,28.80
2017-09-28T08:03:07.872Z,28.80
2017-09-28T08:05:36.530Z,28.80
2017-09-28T08:08:04.724Z,28.80
2017-09-28T08:10:32.985Z,28.70
2017-09-28T08:13:01.234Z,28.70
2017-09-28T08:15:29.540Z,28.70
2017-09-28T08:17:57.810Z,28.70
2017-09-28T08:20:26.579Z,28.70
2017-09-28T08:22:54.839Z,28.70
2017-09-28T08:25:23.841Z,28.70
2017-09-28T08:27:52.980Z,28.70
2017-09-28T08:30:21.240Z,28.70
2017-09-28T08:32:49.508Z,28.80
2017-09-28T08:35:18.103Z,28.80
2017-09-28T08:37:46.304Z,28.80
2017-09-28T08:40:14.560Z,28.80
2017-09-28T08:42:42.831Z,28.90
2017-09-28T08:45:11.040Z,28.90
2017-09-28T08:47:39.367Z,28.90
2017-09-28T08:50:07.600Z,28.90
2017-09-28T08:52:35.904Z,29.00
2017-09-28T08:55:04.937Z,29.00
2017-09-28T08:57:33.164Z,29.00
2017-09-28T09:00:02.177Z,29.10
2017-09-28T09:02:30.536Z,29.10
2017-09-28T09:04:58.781Z,29.20
2017-09-28T09:07:27.075Z,29.20
2017-09-28T09:09:55.316Z,29.30
2017-09-28T09:12:23.584Z,29.30
2017-09-28T09:14:52.033Z,29.40
2017-09-28T09:17:21.016Z,29.50
2017-09-28T09:19:50.047Z,29.50
2017-09-28T09:22:19.243Z,29.50
2017-09-28T09:24:49.208Z,29.60
2017-09-28T09:27:17.488Z,29.70
2017-09-28T09:29:45.746Z,29.70
2017-09-28T09:32:14.014Z,29.70
2017-09-28T09:34:42.917Z,29.80
2017-09-28T09:37:11.702Z,29.80
2017-09-28T09:39:39.981Z,29.90
2017-09-28T09:42:08.308Z,29.90
2017-09-28T09:44:36.576Z,30.00
2017-09-28T09:47:05.572Z,30.10
2017-09-28T09:49:35.821Z,30.10
2017-09-28T09:52:04.032Z,30.00
2017-09-28T09:54:32.286Z,30.00
2017-09-28T09:57:01.687Z,30.00
2017-09-28T10:02:09.157Z,30.10
2017-09-28T10:04:37.402Z,30.10
2017-09-28T10:07:29.687Z,30.10
2017-09-28T10:10:22.370Z,30.10
2017-09-28T10:13:20.964Z,30.20
2017-09-28T10:16:16.536Z,30.20
2017-09-28T10:18:54.816Z,30.30
2017-09-28T10:21:23.985Z,30.30
2017-09-28T10:23:52.217Z,30.40
2017-09-28T10:26:20.479Z,30.40
2017-09-28T10:28:49.473Z,30.40
2017-09-28T10:31:18.512Z,30.40
2017-09-28T10:33:46.749Z,30.40
2017-09-28T10:36:15.798Z,30.50
2017-09-28T10:38:44.038Z,30.50
2017-09-28T10:41:12.325Z,30.50
2017-09-28T10:43:40.536Z,30.50
2017-09-28T10:46:08.888Z,30.60
2017-09-28T10:48:37.156Z,30.60
2017-09-28T10:51:05.403Z,30.60
2017-09-28T10:53:34.449Z,30.70
2017-09-28T10:56:02.729Z,30.70
2017-09-28T10:58:30.955Z,30.70
2017-09-28T11:00:59.179Z,30.70
2017-09-28T11:03:27.425Z,30.70
2017-09-28T11:05:55.721Z,30.70
2017-09-28T11:08:24.025Z,30.80
2017-09-28T11:10:52.293Z,30.80
2017-09-28T11:13:20.588Z,30.80
2017-09-28T11:15:48.931Z,30.80
2017-09-28T11:18:17.853Z,30.80
2017-09-28T11:20:46.108Z,30.80
2017-09-28T11:23:14.372Z,30.80
2017-09-28T11:25:42.584Z,30.80
2017-09-28T11:28:11.599Z,30.90
2017-09-28T11:30:40.597Z,30.80
2017-09-28T11:33:09.661Z,30.90
2017-09-28T11:35:37.882Z,30.80
2017-09-28T11:38:06.119Z,30.80
2017-09-28T11:40:34.352Z,30.90
2017-09-28T11:43:02.643Z,30.90
2017-09-28T11:45:41.193Z,30.90
2017-09-28T11:48:09.528Z,31.00
2017-09-28T11:50:37.973Z,31.00
2017-09-28T11:53:06.423Z,31.00
2017-09-28T11:55:34.714Z,31.00
2017-09-28T11:58:03.851Z,31.10
2017-09-28T12:00:32.117Z,31.00
2017-09-28T12:03:00.340Z,31.10
2017-09-28T12:05:28.667Z,31.10
2017-09-28T12:07:56.916Z,31.20
2017-09-28T12:10:26.053Z,31.20
2017-09-28T12:12:54.251Z,31.20
2017-09-28T12:15:22.615Z,31.30
2017-09-28T12:17:50.944Z,31.30
2017-09-28T12:20:19.989Z,31.50
2017-09-28T12:22:52.930Z,31.50
2017-09-28T12:25:21.168Z,31.60
2017-09-28T12:27:49.422Z,31.70
2017-09-28T12:30:17.722Z,31.80
2017-09-28T12:32:45.944Z,31.90
2017-09-28T12:35:14.164Z,32.00
2017-09-28T12:37:42.474Z,32.10
2017-09-28T12:40:10.912Z,32.20
2017-09-28T12:42:39.223Z,32.30
2017-09-28T12:45:07.477Z,32.40
2017-09-28T12:47:35.699Z,32.50
2017-09-28T12:50:04.930Z,32.60
2017-09-28T12:52:33.206Z,32.60
2017-09-28T12:55:01.431Z,32.70
2017-09-28T12:57:29.719Z,32.70
2017-09-28T12:59:57.954Z,32.70
2017-09-28T13:02:26.204Z,32.80
2017-09-28T13:04:54.422Z,32.70
2017-09-28T13:07:22.651Z,32.70
2017-09-28T13:10:00.920Z,32.70
2017-09-28T13:12:29.291Z,32.60
2017-09-28T13:14:57.541Z,32.60
2017-09-28T13:17:25.839Z,32.70
2017-09-28T13:22:29.852Z,32.70
2017-09-28T13:24:58.117Z,32.70
2017-09-28T13:27:26.381Z,32.70
2017-09-28T13:29:54.583Z,32.80
2017-09-28T13:32:22.827Z,32.80
2017-09-28T13:34:51.088Z,32.80
2017-09-28T13:37:19.380Z,32.90
2017-09-28T13:39:47.668Z,32.90
2017-09-28T13:42:15.933Z,33.00
2017-09-28T13:44:44.180Z,33.00
2017-09-28T13:47:13.172Z,33.10
2017-09-28T13:49:42.288Z,33.10
2017-09-28T13:52:10.589Z,33.10
2017-09-28T13:54:38.801Z,33.00
2017-09-28T13:57:07.021Z,33.00
2017-09-28T13:59:35.269Z,33.00
2017-09-28T14:02:03.524Z,33.00
2017-09-28T14:04:31.764Z,33.00
2017-09-28T14:07:00.325Z,32.90
2017-09-28T14:09:30.561Z,32.80
2017-09-28T14:11:58.799Z,32.80
2017-09-28T14:14:27.103Z,32.70
2017-09-28T14:16:56.112Z,32.60
2017-09-28T14:19:24.332Z,32.60
2017-09-28T14:21:52.580Z,32.60
2017-09-28T14:24:20.849Z,32.60
2017-09-28T14:26:49.185Z,32.60
2017-09-28T14:29:17.425Z,32.70
2017-09-28T14:31:45.632Z,32.70
2017-09-28T14:34:13.876Z,32.70
2017-09-28T14:36:42.088Z,32.80
2017-09-28T14:39:11.136Z,32.70
2017-09-28T14:41:39.427Z,32.70
2017-09-28T14:44:07.668Z,32.70
2017-09-28T14:46:35.908Z,32.60
2017-09-28T14:49:04.933Z,32.50
2017-09-28T14:51:33.210Z,32.50
2017-09-28T14:54:01.734Z,32.50
2017-09-28T14:56:29.965Z,32.40
2017-09-28T14:59:03.056Z,32.40
2017-09-28T15:01:31.256Z,32.30
2017-09-28T15:03:59.521Z,32.20
2017-09-28T15:06:27.790Z,32.20
2017-09-28T15:08:56.023Z,32.10
2017-09-28T15:11:24.241Z,32.10
2017-09-28T15:13:59.366Z,32.10
2017-09-28T15:16:27.588Z,32.00
2017-09-28T15:18:55.892Z,31.90
2017-09-28T15:23:59.148Z,31.80
2017-09-28T15:26:27.388Z,31.80
2017-09-28T15:28:56.388Z,31.70
2017-09-28T15:31:25.397Z,31.60
2017-09-28T15:33:53.741Z,31.60
2017-09-28T15:36:22.016Z,31.60
2017-09-28T15:38:51.812Z,31.50
2017-09-28T15:41:20.080Z,31.50
2017-09-28T15:43:48.339Z,31.50
2017-09-28T15:46:16.572Z,31.50
2017-09-28T15:48:45.765Z,31.40
2017-09-28T15:51:14.820Z,31.40
2017-09-28T15:53:43.076Z,31.30
2017-09-28T15:56:11.382Z,31.30
2017-09-28T15:58:39.641Z,31.30
2017-09-28T16:01:07.904Z,31.20
2017-09-28T16:03:36.109Z,31.20
2017-09-28T16:06:04.380Z,31.20
2017-09-28T16:08:32.604Z,31.10
2017-09-28T16:11:01.592Z,31.10
2017-09-28T16:13:30.596Z,31.10
2017-09-28T16:15:58.997Z,31.00
2017-09-28T16:18:27.269Z,31.10
2017-09-28T16:20:55.674Z,31.00
2017-09-28T16:23:25.261Z,31.00
2017-09-28T16:25:53.624Z,31.00
2017-09-28T16:28:22.129Z,30.90
2017-09-28T16:30:50.378Z,30.90
2017-09-28T16:33:18.600Z,30.90
2017-09-28T16:35:46.832Z,30.90
2017-09-28T16:38:15.072Z,30.80
2017-09-28T16:40:43.297Z,30.80
2017-09-28T16:43:11.634Z,30.80
2017-09-28T16:45:39.912Z,30.70
2017-09-28T16:48:08.899Z,30.70
2017-09-28T16:50:37.263Z,30.70
2017-09-28T16:53:05.469Z,30.70
2017-09-28T16:55:34.477Z,30.60
2017-09-28T16:58:02.772Z,30.60
2017-09-28T17:00:31.030Z,30.50
2017-09-28T17:03:00.532Z,30.60
2017-09-28T17:05:28.752Z,30.50
2017-09-28T17:07:56.993Z,30.50
2017-09-28T17:10:25.204Z,30.40
2017-09-28T17:12:53.466Z,30.40
2017-09-28T17:15:21.902Z,30.40
2017-09-28T17:17:50.124Z,30.30
2017-09-28T17:20:18.357Z,30.30
2017-09-28T17:22:47.453Z,30.20
2017-09-28T17:25:17.186Z,30.20
2017-09-28T17:27:45.452Z,30.20
2017-09-28T17:30:14.440Z,30.10
2017-09-28T17:32:42.695Z,30.10
2017-09-28T17:35:10.899Z,30.10
2017-09-28T17:37:39.297Z,30.10
2017-09-28T17:40:07.517Z,30.10
2017-09-28T17:42:35.864Z,30.10
2017-09-28T17:45:04.064Z,30.10
2017-09-28T17:47:32.288Z,30.00
2017-09-28T17:50:00.541Z,30.00
2017-09-28T17:52:29.540Z,29.90
2017-09-28T17:54:58.616Z,29.90
2017-09-28T17:57:27.618Z,29.90
2017-09-28T17:59:56.600Z,29.80
2017-09-28T18:02:24.796Z,29.80
2017-09-28T18:04:53.768Z,29.80
2017-09-28T18:07:22.004Z,29.80
2017-09-28T18:09:50.431Z,29.80
2017-09-28T18:12:19.448Z,29.70
2017-09-28T18:14:47.683Z,29.70
2017-09-28T18:17:16.032Z,29.70
2017-09-28T18:19:44.268Z,29.60
2017-09-28T18:22:13.816Z,29.60
2017-09-28T18:24:42.125Z,29.50
2017-09-28T18:27:10.359Z,29.50
2017-09-28T18:29:38.614Z,29.50
2017-09-28T18:32:06.840Z,29.50
2017-09-28T18:34:36.568Z,29.40
2017-09-28T18:37:04.775Z,29.40
2017-09-28T18:39:32.979Z,29.40
2017-09-28T18:42:01.193Z,29.40
2017-09-28T18:44:29.428Z,29.40
2017-09-28T18:46:57.657Z,29.30
2017-09-28T18:49:26.733Z,29.30
2017-09-28T18:51:54.948Z,29.30
2017-09-28T18:54:23.228Z,29.30
2017-09-28T18:56:51.470Z,29.30
2017-09-28T18:59:20.664Z,29.30
2017-09-28T19:01:48.879Z,29.30
2017-09-28T19:04:17.165Z,29.20
2017-09-28T19:09:25.419Z,29.20
2017-09-28T19:11:53.720Z,29.20
2017-09-28T19:14:21.964Z,29.20
2017-09-28T19:16:50.210Z,29.10
2017-09-28T19:19:18.437Z,29.10
2017-09-28T19:21:46.973Z,29.10
2017-09-28T19:24:15.213Z,29.10
2017-09-28T19:26:43.412Z,29.10
2017-09-28T19:29:11.648Z,29.10
2017-09-28T19:31:39.872Z,29.10
2017-09-28T19:34:08.096Z,29.00
2017-09-28T19:36:36.347Z,29.00
2017-09-28T19:39:04.865Z,29.10
2017-09-28T19:41:33.076Z,29.00
2017-09-28T19:44:01.331Z,29.00
2017-09-28T19:46:29.556Z,29.00
2017-09-28T19:48:57.765Z,29.00
2017-09-28T19:51:25.992Z,29.00
2017-09-28T19:53:54.228Z,29.00
2017-09-28T19:56:23.220Z,28.90
2017-09-28T19:58:52.229Z,28.90
2017-09-28T20:01:20.503Z,28.90
2017-09-28T20:03:49.496Z,28.90
2017-09-28T20:06:18.488Z,28.90
2017-09-28T20:08:47.461Z,28.90
2017-09-28T20:11:15.680Z,28.90
2017-09-28T20:13:43.928Z,28.80
2017-09-28T20:16:12.905Z,28.80
2017-09-28T20:18:41.124Z,28.80
2017-09-28T20:21:09.504Z,28.80
2017-09-28T20:23:37.752Z,28.80
2017-09-28T20:26:06.757Z,28.80
2017-09-28T20:28:34.981Z,28.80
2017-09-28T20:31:03.184Z,28.80
2017-09-28T20:33:31.425Z,28.80
2017-09-28T20:35:59.633Z,28.80
2017-09-28T20:38:27.864Z,28.70
2017-09-28T20:40:56.861Z,28.80
2017-09-28T20:43:25.068Z,28.70
2017-09-28T20:48:28.294Z,28.70
2017-09-28T20:50:57.293Z,28.70
2017-09-28T20:53:26.272Z,28.70
2017-09-28T20:55:54.477Z,28.70
2017-09-28T20:58:22.705Z,28.70
2017-09-28T21:00:50.928Z,28.70
2017-09-28T21:03:19.256Z,28.70
2017-09-28T21:05:47.465Z,28.70
2017-09-28T21:08:16.452Z,28.60
2017-09-28T21:10:45.440Z,28.70
2017-09-28T21:13:14.513Z,28.70
2017-09-28T21:15:42.820Z,28.60
2017-09-28T21:18:11.784Z,28.70
2017-09-28T21:20:39.992Z,28.60
2017-09-28T21:23:09.030Z,28.60
2017-09-28T21:25:37.260Z,28.60
2017-09-28T21:28:06.236Z,28.70
2017-09-28T21:30:34.476Z,28.60
2017-09-28T21:33:02.705Z,28.60
2017-09-28T21:35:32.596Z,28.70
2017-09-28T21:38:00.793Z,28.60
2017-09-28T21:40:29.889Z,28.70
2017-09-28T21:42:58.872Z,28.70
2017-09-28T21:45:27.087Z,28.70
2017-09-28T21:47:55.299Z,28.70
2017-09-28T21:50:23.584Z,28.70
2017-09-28T21:52:51.800Z,28.60
2017-09-28T21:55:20.140Z,28.70
2017-09-28T21:57:48.444Z,28.60
2017-09-28T22:00:17.912Z,28.60
2017-09-28T22:02:46.176Z,28.60
2017-09-28T22:05:14.440Z,28.60
2017-09-28T22:07:42.689Z,28.60
2017-09-28T22:10:10.903Z,28.60
2017-09-28T22:12:39.176Z,28.60
2017-09-28T22:15:07.389Z,28.50
2017-09-28T22:17:35.660Z,28.60
2017-09-28T22:20:03.900Z,28.60
2017-09-28T22:22:32.120Z,28.50
2017-09-28T22:25:01.136Z,28.50
2017-09-28T22:27:29.352Z,28.50
2017-09-28T22:29:57.568Z,28.50
2017-09-28T22:32:26.589Z,28.50
2017-09-28T22:34:54.825Z,28.50
2017-09-28T22:37:23.143Z,28.50
2017-09-28T22:39:51.360Z,28.50
2017-09-28T22:42:19.593Z,28.50
2017-09-28T22:44:47.816Z,28.40
2017-09-28T22:47:16.028Z,28.40
2017-09-28T22:49:44.996Z,28.40
2017-09-28T22:52:13.208Z,28.40
2017-09-28T22:54:41.424Z,28.40
2017-09-28T22:57:09.643Z,28.40
2017-09-28T22:59:38.636Z,28.40
2017-09-28T23:02:07.880Z,28.40
2017-09-28T23:04:36.125Z,28.40
2017-09-28T23:07:04.312Z,28.40
2017-09-28T23:09:32.524Z,28.40
2017-09-28T23:12:00.796Z,28.40
2017-09-28T23:14:29.150Z,28.40
2017-09-28T23:16:57.347Z,28.40
2017-09-28T23:19:25.569Z,28.40
2017-09-28T23:21:54.680Z,28.30
2017-09-28T23:24:22.893Z,28.30
2017-09-28T23:26:51.109Z,28.30
2017-09-28T23:29:20.116Z,28.30
2017-09-28T23:31:49.124Z,28.30
2017-09-28T23:34:17.432Z,28.30
2017-09-28T23:36:45.646Z,28.30
2017-09-28T23:39:14.622Z,28.30
2017-09-28T23:41:42.845Z,28.30
2017-09-28T23:44:11.077Z,28.30
2017-09-28T23:46:40.081Z,28.30
2017-09-28T23:49:09.145Z,28.30
2017-09-28T23:51:37.356Z,28.30
2017-09-28T23:54:06.525Z,28.20
2017-09-28T23:56:34.751Z,28.20
2017-09-28T23:59:03.052Z,28.20
